sensor_id;sensor_type;location;lat;lon;timestamp;P1;durP1;ratioP1;P2;durP2;ratioP2
25657;SDS011;13517;59.320;18.042;2022-09-12T00:00:41;19.30;;;7.88;;
25657;SDS011;13517;59.320;18.042;2022-09-12T00:03:07;13.98;;;8.13;;
25657;SDS011;13517;59.320;18.042;2022-09-12T00:05:33;19.27;;;9.35;;
25657;SDS011;13517;59.320;18.042;2022-09-12T00:07:59;18.92;;;8.60;;
25657;SDS011;13517;59.320;18.042;2022-09-12T00:10:24;17.15;;;8.35;;
25657;SDS011;13517;59.320;18.042;2022-09-12T00:12:50;17.27;;;8.10;;
25657;SDS011;13517;59.320;18.042;2022-09-12T00:15:16;11.20;;;7.75;;
25657;SDS011;13517;59.320;18.042;2022-09-12T00:17:42;17.70;;;8.73;;
25657;SDS011;13517;59.320;18.042;2022-09-12T00:20:08;15.30;;;8.57;;
25657;SDS011;13517;59.320;18.042;2022-09-12T00:22:35;19.48;;;9.23;;
25657;SDS011;13517;59.320;18.042;2022-09-12T00:25:01;13.90;;;8.13;;
25657;SDS011;13517;59.320;18.042;2022-09-12T00:27:27;14.48;;;8.00;;
25657;SDS011;13517;59.320;18.042;2022-09-12T00:29:53;13.30;;;7.75;;
25657;SDS011;13517;59.320;18.042;2022-09-12T00:32:19;12.70;;;7.90;;
25657;SDS011;13517;59.320;18.042;2022-09-12T00:34:44;11.38;;;7.80;;
25657;SDS011;13517;59.320;18.042;2022-09-12T00:37:10;18.30;;;8.60;;
25657;SDS011;13517;59.320;18.042;2022-09-12T00:39:35;14.77;;;8.10;;
25657;SDS011;13517;59.320;18.042;2022-09-12T00:42:01;14.85;;;8.57;;
25657;SDS011;13517;59.320;18.042;2022-09-12T00:49:51;21.15;;;8.68;;
25657;SDS011;13517;59.320;18.042;2022-09-12T00:52:36;16.23;;;7.55;;
25657;SDS011;13517;59.320;18.042;2022-09-12T00:55:09;15.38;;;7.78;;
25657;SDS011;13517;59.320;18.042;2022-09-12T01:00:44;20.58;;;7.85;;
25657;SDS011;13517;59.320;18.042;2022-09-12T01:03:11;18.35;;;7.80;;
25657;SDS011;13517;59.320;18.042;2022-09-12T01:05:42;15.48;;;8.50;;
25657;SDS011;13517;59.320;18.042;2022-09-12T01:08:14;16.20;;;8.52;;
25657;SDS011;13517;59.320;18.042;2022-09-12T01:10:40;12.77;;;8.15;;
25657;SDS011;13517;59.320;18.042;2022-09-12T01:13:07;14.98;;;7.90;;
25657;SDS011;13517;59.320;18.042;2022-09-12T01:15:36;16.83;;;8.35;;
25657;SDS011;13517;59.320;18.042;2022-09-12T01:31:17;12.43;;;8.20;;
25657;SDS011;13517;59.320;18.042;2022-09-12T01:39:57;13.57;;;8.05;;
25657;SDS011;13517;59.320;18.042;2022-09-12T01:42:34;16.05;;;8.00;;
25657;SDS011;13517;59.320;18.042;2022-09-12T01:47:44;13.05;;;7.50;;
25657;SDS011;13517;59.320;18.042;2022-09-12T01:50:21;13.95;;;7.47;;
25657;SDS011;13517;59.320;18.042;2022-09-12T01:53:02;10.73;;;7.65;;
25657;SDS011;13517;59.320;18.042;2022-09-12T01:55:33;19.00;;;8.40;;
25657;SDS011;13517;59.320;18.042;2022-09-12T01:58:21;13.35;;;7.30;;
25657;SDS011;13517;59.320;18.042;2022-09-12T02:03:43;12.77;;;8.32;;
25657;SDS011;13517;59.320;18.042;2022-09-12T02:06:19;26.00;;;7.75;;
25657;SDS011;13517;59.320;18.042;2022-09-12T02:08:53;18.23;;;7.97;;
25657;SDS011;13517;59.320;18.042;2022-09-12T02:11:23;16.88;;;8.07;;
25657;SDS011;13517;59.320;18.042;2022-09-12T02:13:52;15.15;;;8.00;;
25657;SDS011;13517;59.320;18.042;2022-09-12T02:16:31;10.87;;;6.80;;
25657;SDS011;13517;59.320;18.042;2022-09-12T02:19:08;14.65;;;7.75;;
25657;SDS011;13517;59.320;18.042;2022-09-12T02:21:39;12.45;;;7.40;;
25657;SDS011;13517;59.320;18.042;2022-09-12T02:24:09;13.15;;;8.13;;
25657;SDS011;13517;59.320;18.042;2022-09-12T02:27:00;14.95;;;8.63;;
25657;SDS011;13517;59.320;18.042;2022-09-12T02:29:28;16.38;;;8.00;;
25657;SDS011;13517;59.320;18.042;2022-09-12T02:37:20;16.95;;;7.35;;
25657;SDS011;13517;59.320;18.042;2022-09-12T02:39:50;15.00;;;8.05;;
25657;SDS011;13517;59.320;18.042;2022-09-12T02:42:19;13.77;;;7.85;;
25657;SDS011;13517;59.320;18.042;2022-09-12T02:44:44;13.13;;;6.95;;
25657;SDS011;13517;59.320;18.042;2022-09-12T02:50:22;13.27;;;7.03;;
25657;SDS011;13517;59.320;18.042;2022-09-12T02:52:49;15.10;;;7.63;;
25657;SDS011;13517;59.320;18.042;2022-09-12T02:55:17;16.10;;;7.25;;
25657;SDS011;13517;59.320;18.042;2022-09-12T02:57:43;12.98;;;7.45;;
25657;SDS011;13517;59.320;18.042;2022-09-12T03:00:09;13.65;;;7.35;;
25657;SDS011;13517;59.320;18.042;2022-09-12T03:02:57;10.30;;;6.75;;
25657;SDS011;13517;59.320;18.042;2022-09-12T03:05:37;15.60;;;7.22;;
25657;SDS011;13517;59.320;18.042;2022-09-12T03:08:13;10.23;;;6.85;;
25657;SDS011;13517;59.320;18.042;2022-09-12T03:13:32;18.38;;;7.55;;
25657;SDS011;13517;59.320;18.042;2022-09-12T03:16:13;15.23;;;7.70;;
25657;SDS011;13517;59.320;18.042;2022-09-12T03:27:26;12.45;;;7.05;;
25657;SDS011;13517;59.320;18.042;2022-09-12T03:29:57;11.73;;;6.95;;
25657;SDS011;13517;59.320;18.042;2022-09-12T03:32:40;20.65;;;7.90;;
25657;SDS011;13517;59.320;18.042;2022-09-12T03:35:05;13.43;;;7.78;;
25657;SDS011;13517;59.320;18.042;2022-09-12T03:37:31;20.55;;;7.72;;
25657;SDS011;13517;59.320;18.042;2022-09-12T03:39:56;14.85;;;6.90;;
25657;SDS011;13517;59.320;18.042;2022-09-12T03:42:22;14.07;;;7.35;;
25657;SDS011;13517;59.320;18.042;2022-09-12T03:44:47;11.30;;;7.60;;
25657;SDS011;13517;59.320;18.042;2022-09-12T03:47:12;15.27;;;7.55;;
25657;SDS011;13517;59.320;18.042;2022-09-12T03:49:38;9.70;;;7.20;;
25657;SDS011;13517;59.320;18.042;2022-09-12T03:52:03;16.35;;;8.07;;
25657;SDS011;13517;59.320;18.042;2022-09-12T03:54:29;30.73;;;8.60;;
25657;SDS011;13517;59.320;18.042;2022-09-12T03:56:54;21.15;;;8.00;;
25657;SDS011;13517;59.320;18.042;2022-09-12T03:59:19;15.43;;;7.68;;
25657;SDS011;13517;59.320;18.042;2022-09-12T04:01:45;14.25;;;7.50;;
25657;SDS011;13517;59.320;18.042;2022-09-12T04:04:10;17.55;;;7.90;;
25657;SDS011;13517;59.320;18.042;2022-09-12T04:06:36;19.65;;;7.78;;
25657;SDS011;13517;59.320;18.042;2022-09-12T04:09:01;16.33;;;7.63;;
25657;SDS011;13517;59.320;18.042;2022-09-12T04:11:26;26.27;;;8.15;;
25657;SDS011;13517;59.320;18.042;2022-09-12T04:13:52;13.65;;;7.15;;
25657;SDS011;13517;59.320;18.042;2022-09-12T04:16:18;20.63;;;8.00;;
25657;SDS011;13517;59.320;18.042;2022-09-12T04:18:44;29.23;;;8.48;;
25657;SDS011;13517;59.320;18.042;2022-09-12T04:21:10;26.20;;;8.55;;
25657;SDS011;13517;59.320;18.042;2022-09-12T04:23:43;23.50;;;8.13;;
25657;SDS011;13517;59.320;18.042;2022-09-12T04:26:09;24.60;;;7.38;;
25657;SDS011;13517;59.320;18.042;2022-09-12T04:28:35;17.83;;;8.15;;
25657;SDS011;13517;59.320;18.042;2022-09-12T04:31:03;20.23;;;7.45;;
25657;SDS011;13517;59.320;18.042;2022-09-12T04:33:33;25.17;;;8.10;;
25657;SDS011;13517;59.320;18.042;2022-09-12T04:36:07;25.25;;;7.95;;
25657;SDS011;13517;59.320;18.042;2022-09-12T04:38:35;16.48;;;7.45;;
25657;SDS011;13517;59.320;18.042;2022-09-12T04:41:09;15.25;;;7.72;;
25657;SDS011;13517;59.320;18.042;2022-09-12T04:43:45;15.32;;;7.63;;
25657;SDS011;13517;59.320;18.042;2022-09-12T04:46:11;15.60;;;7.88;;
25657;SDS011;13517;59.320;18.042;2022-09-12T04:48:39;12.07;;;6.63;;
25657;SDS011;13517;59.320;18.042;2022-09-12T04:51:09;21.20;;;7.25;;
25657;SDS011;13517;59.320;18.042;2022-09-12T04:53:36;12.05;;;6.63;;
25657;SDS011;13517;59.320;18.042;2022-09-12T04:56:06;15.57;;;6.88;;
25657;SDS011;13517;59.320;18.042;2022-09-12T04:58:34;16.63;;;7.22;;
25657;SDS011;13517;59.320;18.042;2022-09-12T05:01:06;22.50;;;8.40;;
25657;SDS011;13517;59.320;18.042;2022-09-12T05:03:33;19.70;;;8.10;;
25657;SDS011;13517;59.320;18.042;2022-09-12T05:06:02;15.20;;;7.20;;
25657;SDS011;13517;59.320;18.042;2022-09-12T05:08:28;18.27;;;7.75;;
25657;SDS011;13517;59.320;18.042;2022-09-12T05:10:53;17.55;;;7.65;;
25657;SDS011;13517;59.320;18.042;2022-09-12T05:13:19;22.92;;;7.93;;
25657;SDS011;13517;59.320;18.042;2022-09-12T05:15:52;20.05;;;7.47;;
25657;SDS011;13517;59.320;18.042;2022-09-12T05:18:19;24.13;;;7.55;;
25657;SDS011;13517;59.320;18.042;2022-09-12T05:20:45;17.58;;;8.85;;
25657;SDS011;13517;59.320;18.042;2022-09-12T05:23:10;21.42;;;7.95;;
25657;SDS011;13517;59.320;18.042;2022-09-12T05:25:36;21.40;;;7.75;;
25657;SDS011;13517;59.320;18.042;2022-09-12T05:28:01;16.23;;;7.18;;
25657;SDS011;13517;59.320;18.042;2022-09-12T05:30:27;11.82;;;6.97;;
25657;SDS011;13517;59.320;18.042;2022-09-12T05:32:52;13.57;;;7.88;;
25657;SDS011;13517;59.320;18.042;2022-09-12T05:35:18;14.35;;;8.25;;
25657;SDS011;13517;59.320;18.042;2022-09-12T05:37:43;18.67;;;7.20;;
25657;SDS011;13517;59.320;18.042;2022-09-12T05:40:08;13.70;;;6.47;;
25657;SDS011;13517;59.320;18.042;2022-09-12T05:42:34;20.00;;;7.72;;
25657;SDS011;13517;59.320;18.042;2022-09-12T05:45:00;16.00;;;7.45;;
25657;SDS011;13517;59.320;18.042;2022-09-12T05:47:26;18.60;;;7.85;;
25657;SDS011;13517;59.320;18.042;2022-09-12T05:49:51;16.05;;;7.20;;
25657;SDS011;13517;59.320;18.042;2022-09-12T05:52:17;13.65;;;7.82;;
25657;SDS011;13517;59.320;18.042;2022-09-12T05:54:43;12.55;;;6.78;;
25657;SDS011;13517;59.320;18.042;2022-09-12T05:57:08;17.40;;;7.80;;
25657;SDS011;13517;59.320;18.042;2022-09-12T05:59:34;22.05;;;9.18;;
25657;SDS011;13517;59.320;18.042;2022-09-12T06:01:59;25.08;;;9.20;;
25657;SDS011;13517;59.320;18.042;2022-09-12T06:04:25;27.15;;;8.77;;
25657;SDS011;13517;59.320;18.042;2022-09-12T06:06:51;22.77;;;8.07;;
25657;SDS011;13517;59.320;18.042;2022-09-12T06:09:17;16.98;;;7.28;;
25657;SDS011;13517;59.320;18.042;2022-09-12T06:11:43;21.35;;;8.30;;
25657;SDS011;13517;59.320;18.042;2022-09-12T06:14:10;15.95;;;7.68;;
25657;SDS011;13517;59.320;18.042;2022-09-12T06:16:38;20.00;;;8.43;;
25657;SDS011;13517;59.320;18.042;2022-09-12T06:19:05;21.77;;;8.25;;
25657;SDS011;13517;59.320;18.042;2022-09-12T06:21:32;27.13;;;8.13;;
25657;SDS011;13517;59.320;18.042;2022-09-12T06:23:59;16.20;;;8.27;;
25657;SDS011;13517;59.320;18.042;2022-09-12T06:26:25;25.83;;;7.45;;
25657;SDS011;13517;59.320;18.042;2022-09-12T06:28:52;14.30;;;7.57;;
25657;SDS011;13517;59.320;18.042;2022-09-12T06:31:21;25.45;;;7.28;;
25657;SDS011;13517;59.320;18.042;2022-09-12T06:33:51;23.67;;;8.57;;
25657;SDS011;13517;59.320;18.042;2022-09-12T06:36:19;17.77;;;7.95;;
25657;SDS011;13517;59.320;18.042;2022-09-12T06:38:53;21.05;;;8.15;;
25657;SDS011;13517;59.320;18.042;2022-09-12T06:41:20;25.02;;;8.07;;
25657;SDS011;13517;59.320;18.042;2022-09-12T06:43:45;19.05;;;8.80;;
25657;SDS011;13517;59.320;18.042;2022-09-12T06:46:11;16.17;;;8.18;;
25657;SDS011;13517;59.320;18.042;2022-09-12T06:48:37;21.73;;;7.95;;
25657;SDS011;13517;59.320;18.042;2022-09-12T06:53:30;22.98;;;8.00;;
25657;SDS011;13517;59.320;18.042;2022-09-12T06:56:02;31.75;;;9.00;;
25657;SDS011;13517;59.320;18.042;2022-09-12T06:58:30;28.45;;;9.20;;
25657;SDS011;13517;59.320;18.042;2022-09-12T07:01:08;20.02;;;7.50;;
25657;SDS011;13517;59.320;18.042;2022-09-12T07:03:37;19.67;;;7.65;;
25657;SDS011;13517;59.320;18.042;2022-09-12T07:06:07;32.22;;;8.82;;
25657;SDS011;13517;59.320;18.042;2022-09-12T07:08:35;19.02;;;8.80;;
25657;SDS011;13517;59.320;18.042;2022-09-12T07:11:35;17.33;;;7.38;;
25657;SDS011;13517;59.320;18.042;2022-09-12T07:13:56;17.30;;;7.28;;
25657;SDS011;13517;59.320;18.042;2022-09-12T07:16:23;21.52;;;7.55;;
25657;SDS011;13517;59.320;18.042;2022-09-12T07:19:08;12.90;;;6.85;;
25657;SDS011;13517;59.320;18.042;2022-09-12T07:24:03;17.33;;;6.35;;
25657;SDS011;13517;59.320;18.042;2022-09-12T07:26:29;15.02;;;5.43;;
25657;SDS011;13517;59.320;18.042;2022-09-12T07:28:55;13.88;;;4.55;;
25657;SDS011;13517;59.320;18.042;2022-09-12T07:31:23;11.55;;;5.20;;
25657;SDS011;13517;59.320;18.042;2022-09-12T07:33:51;11.65;;;5.75;;
25657;SDS011;13517;59.320;18.042;2022-09-12T07:36:18;20.42;;;6.05;;
25657;SDS011;13517;59.320;18.042;2022-09-12T07:38:45;13.82;;;5.22;;
25657;SDS011;13517;59.320;18.042;2022-09-12T07:41:21;11.55;;;5.53;;
25657;SDS011;13517;59.320;18.042;2022-09-12T07:43:51;12.15;;;4.82;;
25657;SDS011;13517;59.320;18.042;2022-09-12T07:46:21;7.78;;;4.03;;
25657;SDS011;13517;59.320;18.042;2022-09-12T07:48:48;7.70;;;3.92;;
25657;SDS011;13517;59.320;18.042;2022-09-12T07:51:17;9.65;;;4.03;;
25657;SDS011;13517;59.320;18.042;2022-09-12T07:53:43;9.15;;;3.75;;
25657;SDS011;13517;59.320;18.042;2022-09-12T07:56:09;11.57;;;3.88;;
25657;SDS011;13517;59.320;18.042;2022-09-12T07:58:36;6.38;;;4.20;;
25657;SDS011;13517;59.320;18.042;2022-09-12T08:01:06;8.52;;;3.47;;
25657;SDS011;13517;59.320;18.042;2022-09-12T08:03:34;7.30;;;3.30;;
25657;SDS011;13517;59.320;18.042;2022-09-12T08:06:04;10.45;;;3.63;;
25657;SDS011;13517;59.320;18.042;2022-09-12T08:08:30;7.35;;;3.30;;
25657;SDS011;13517;59.320;18.042;2022-09-12T08:10:56;7.50;;;3.33;;
25657;SDS011;13517;59.320;18.042;2022-09-12T08:13:23;13.43;;;3.60;;
25657;SDS011;13517;59.320;18.042;2022-09-12T08:15:50;11.13;;;3.58;;
25657;SDS011;13517;59.320;18.042;2022-09-12T08:18:15;6.78;;;3.42;;
25657;SDS011;13517;59.320;18.042;2022-09-12T08:20:40;9.52;;;3.28;;
25657;SDS011;13517;59.320;18.042;2022-09-12T08:23:07;7.40;;;3.30;;
25657;SDS011;13517;59.320;18.042;2022-09-12T08:25:32;12.35;;;3.17;;
25657;SDS011;13517;59.320;18.042;2022-09-12T08:27:58;4.88;;;3.10;;
25657;SDS011;13517;59.320;18.042;2022-09-12T08:30:25;10.27;;;3.20;;
25657;SDS011;13517;59.320;18.042;2022-09-12T08:32:53;5.30;;;2.95;;
25657;SDS011;13517;59.320;18.042;2022-09-12T08:35:18;9.70;;;3.00;;
25657;SDS011;13517;59.320;18.042;2022-09-12T08:37:44;5.47;;;3.00;;
25657;SDS011;13517;59.320;18.042;2022-09-12T08:40:18;7.88;;;3.67;;
25657;SDS011;13517;59.320;18.042;2022-09-12T08:42:51;7.30;;;2.95;;
25657;SDS011;13517;59.320;18.042;2022-09-12T08:45:29;7.43;;;3.15;;
25657;SDS011;13517;59.320;18.042;2022-09-12T08:48:01;4.75;;;2.50;;
25657;SDS011;13517;59.320;18.042;2022-09-12T08:50:28;8.70;;;2.92;;
25657;SDS011;13517;59.320;18.042;2022-09-12T08:53:03;8.73;;;2.70;;
25657;SDS011;13517;59.320;18.042;2022-09-12T08:55:39;5.00;;;2.92;;
25657;SDS011;13517;59.320;18.042;2022-09-12T08:58:16;15.32;;;2.90;;
25657;SDS011;13517;59.320;18.042;2022-09-12T09:07:25;7.65;;;2.67;;
25657;SDS011;13517;59.320;18.042;2022-09-12T09:14:50;7.38;;;3.03;;
25657;SDS011;13517;59.320;18.042;2022-09-12T09:17:22;6.20;;;2.38;;
25657;SDS011;13517;59.320;18.042;2022-09-12T09:20:08;2.97;;;2.05;;
25657;SDS011;13517;59.320;18.042;2022-09-12T09:22:47;6.65;;;2.45;;
25657;SDS011;13517;59.320;18.042;2022-09-12T09:25:18;3.63;;;2.17;;
25657;SDS011;13517;59.320;18.042;2022-09-12T09:27:55;6.28;;;2.05;;
25657;SDS011;13517;59.320;18.042;2022-09-12T09:30:25;5.00;;;2.88;;
25657;SDS011;13517;59.320;18.042;2022-09-12T09:32:52;7.50;;;2.72;;
25657;SDS011;13517;59.320;18.042;2022-09-12T09:43:22;4.30;;;2.17;;
25657;SDS011;13517;59.320;18.042;2022-09-12T09:45:53;5.72;;;2.10;;
25657;SDS011;13517;59.320;18.042;2022-09-12T09:48:20;5.68;;;2.50;;
25657;SDS011;13517;59.320;18.042;2022-09-12T09:50:49;5.50;;;2.60;;
25657;SDS011;13517;59.320;18.042;2022-09-12T09:53:27;3.10;;;2.33;;
25657;SDS011;13517;59.320;18.042;2022-09-12T09:56:18;6.90;;;2.28;;
25657;SDS011;13517;59.320;18.042;2022-09-12T09:58:51;3.90;;;2.60;;
25657;SDS011;13517;59.320;18.042;2022-09-12T10:01:17;3.80;;;2.28;;
25657;SDS011;13517;59.320;18.042;2022-09-12T10:08:45;3.53;;;2.15;;
25657;SDS011;13517;59.320;18.042;2022-09-12T10:13:39;3.28;;;2.00;;
25657;SDS011;13517;59.320;18.042;2022-09-12T10:16:16;4.60;;;2.10;;
25657;SDS011;13517;59.320;18.042;2022-09-12T10:18:43;4.90;;;2.00;;
25657;SDS011;13517;59.320;18.042;2022-09-12T10:21:26;4.07;;;2.47;;
25657;SDS011;13517;59.320;18.042;2022-09-12T10:24:14;3.20;;;2.17;;
25657;SDS011;13517;59.320;18.042;2022-09-12T10:26:48;4.97;;;2.25;;
25657;SDS011;13517;59.320;18.042;2022-09-12T10:29:21;3.38;;;2.00;;
25657;SDS011;13517;59.320;18.042;2022-09-12T10:31:52;2.38;;;2.00;;
25657;SDS011;13517;59.320;18.042;2022-09-12T10:34:55;3.97;;;2.30;;
25657;SDS011;13517;59.320;18.042;2022-09-12T10:37:22;4.70;;;2.30;;
25657;SDS011;13517;59.320;18.042;2022-09-12T10:39:53;2.15;;;1.90;;
25657;SDS011;13517;59.320;18.042;2022-09-12T10:45:22;3.92;;;2.22;;
25657;SDS011;13517;59.320;18.042;2022-09-12T10:48:02;4.05;;;2.10;;
25657;SDS011;13517;59.320;18.042;2022-09-12T10:50:56;2.97;;;1.98;;
25657;SDS011;13517;59.320;18.042;2022-09-12T10:53:23;3.97;;;2.20;;
25657;SDS011;13517;59.320;18.042;2022-09-12T11:01:09;3.10;;;1.98;;
25657;SDS011;13517;59.320;18.042;2022-09-12T11:03:58;10.35;;;2.45;;
25657;SDS011;13517;59.320;18.042;2022-09-12T11:09:33;2.42;;;1.90;;
25657;SDS011;13517;59.320;18.042;2022-09-12T11:20:47;5.38;;;2.10;;
25657;SDS011;13517;59.320;18.042;2022-09-12T11:33:52;11.73;;;2.95;;
25657;SDS011;13517;59.320;18.042;2022-09-12T11:36:32;8.23;;;2.85;;
25657;SDS011;13517;59.320;18.042;2022-09-12T11:39:11;4.30;;;2.13;;
25657;SDS011;13517;59.320;18.042;2022-09-12T11:41:42;5.50;;;2.40;;
25657;SDS011;13517;59.320;18.042;2022-09-12T11:46:48;5.70;;;2.38;;
25657;SDS011;13517;59.320;18.042;2022-09-12T11:49:23;10.75;;;3.35;;
25657;SDS011;13517;59.320;18.042;2022-09-12T11:51:57;5.55;;;2.53;;
25657;SDS011;13517;59.320;18.042;2022-09-12T12:02:35;6.00;;;2.03;;
25657;SDS011;13517;59.320;18.042;2022-09-12T12:05:18;3.20;;;2.22;;
25657;SDS011;13517;59.320;18.042;2022-09-12T12:07:52;4.03;;;2.30;;
25657;SDS011;13517;59.320;18.042;2022-09-12T12:10:24;3.20;;;2.22;;
25657;SDS011;13517;59.320;18.042;2022-09-12T12:12:55;8.93;;;2.90;;
25657;SDS011;13517;59.320;18.042;2022-09-12T12:15:23;4.55;;;2.58;;
25657;SDS011;13517;59.320;18.042;2022-09-12T12:17:58;7.35;;;2.30;;
25657;SDS011;13517;59.320;18.042;2022-09-12T12:20:25;4.20;;;1.80;;
25657;SDS011;13517;59.320;18.042;2022-09-12T12:22:52;3.78;;;2.05;;
25657;SDS011;13517;59.320;18.042;2022-09-12T12:31:02;3.58;;;2.40;;
25657;SDS011;13517;59.320;18.042;2022-09-12T12:35:43;10.98;;;2.50;;
25657;SDS011;13517;59.320;18.042;2022-09-12T12:43:46;8.43;;;2.85;;
25657;SDS011;13517;59.320;18.042;2022-09-12T12:46:13;5.20;;;2.80;;
25657;SDS011;13517;59.320;18.042;2022-09-12T12:54:32;3.58;;;2.28;;
25657;SDS011;13517;59.320;18.042;2022-09-12T12:57:14;5.38;;;2.42;;
25657;SDS011;13517;59.320;18.042;2022-09-12T12:59:46;7.10;;;2.50;;
25657;SDS011;13517;59.320;18.042;2022-09-12T13:02:20;11.88;;;2.50;;
25657;SDS011;13517;59.320;18.042;2022-09-12T13:04:49;5.68;;;2.60;;
25657;SDS011;13517;59.320;18.042;2022-09-12T13:07:26;5.82;;;2.80;;
25657;SDS011;13517;59.320;18.042;2022-09-12T13:09:57;6.03;;;2.45;;
25657;SDS011;13517;59.320;18.042;2022-09-12T13:12:29;7.50;;;2.60;;
25657;SDS011;13517;59.320;18.042;2022-09-12T13:14:59;5.70;;;2.05;;
25657;SDS011;13517;59.320;18.042;2022-09-12T13:20:07;7.53;;;2.47;;
25657;SDS011;13517;59.320;18.042;2022-09-12T13:22:50;9.38;;;2.60;;
25657;SDS011;13517;59.320;18.042;2022-09-12T13:25:38;13.70;;;2.30;;
25657;SDS011;13517;59.320;18.042;2022-09-12T13:28:04;5.82;;;2.63;;
25657;SDS011;13517;59.320;18.042;2022-09-12T13:30:39;6.10;;;2.58;;
25657;SDS011;13517;59.320;18.042;2022-09-12T13:33:09;4.97;;;2.17;;
25657;SDS011;13517;59.320;18.042;2022-09-12T13:36:10;4.07;;;2.42;;
25657;SDS011;13517;59.320;18.042;2022-09-12T13:41:49;4.95;;;2.20;;
25657;SDS011;13517;59.320;18.042;2022-09-12T13:44:18;6.45;;;2.33;;
25657;SDS011;13517;59.320;18.042;2022-09-12T13:46:45;5.28;;;2.42;;
25657;SDS011;13517;59.320;18.042;2022-09-12T13:51:57;6.13;;;2.28;;
25657;SDS011;13517;59.320;18.042;2022-09-12T13:54:25;8.45;;;2.42;;
25657;SDS011;13517;59.320;18.042;2022-09-12T13:56:51;4.95;;;2.60;;
25657;SDS011;13517;59.320;18.042;2022-09-12T13:59:17;6.38;;;2.75;;
25657;SDS011;13517;59.320;18.042;2022-09-12T14:01:43;4.47;;;2.03;;
25657;SDS011;13517;59.320;18.042;2022-09-12T14:06:57;3.80;;;2.13;;
25657;SDS011;13517;59.320;18.042;2022-09-12T14:09:33;3.83;;;2.10;;
25657;SDS011;13517;59.320;18.042;2022-09-12T14:12:03;5.30;;;2.28;;
25657;SDS011;13517;59.320;18.042;2022-09-12T14:14:41;6.55;;;2.13;;
25657;SDS011;13517;59.320;18.042;2022-09-12T14:19:42;3.13;;;2.08;;
25657;SDS011;13517;59.320;18.042;2022-09-12T14:22:09;3.95;;;2.45;;
25657;SDS011;13517;59.320;18.042;2022-09-12T14:24:42;7.45;;;2.20;;
25657;SDS011;13517;59.320;18.042;2022-09-12T14:27:25;5.20;;;2.25;;
25657;SDS011;13517;59.320;18.042;2022-09-12T14:30:07;5.38;;;2.30;;
25657;SDS011;13517;59.320;18.042;2022-09-12T14:33:01;5.85;;;2.30;;
25657;SDS011;13517;59.320;18.042;2022-09-12T14:35:48;3.92;;;2.28;;
25657;SDS011;13517;59.320;18.042;2022-09-12T14:40:48;4.45;;;2.00;;
25657;SDS011;13517;59.320;18.042;2022-09-12T14:43:19;4.68;;;2.10;;
25657;SDS011;13517;59.320;18.042;2022-09-12T14:45:56;4.10;;;2.25;;
25657;SDS011;13517;59.320;18.042;2022-09-12T14:48:28;6.45;;;2.22;;
25657;SDS011;13517;59.320;18.042;2022-09-12T14:50:56;6.70;;;2.22;;
25657;SDS011;13517;59.320;18.042;2022-09-12T14:53:24;6.03;;;2.20;;
25657;SDS011;13517;59.320;18.042;2022-09-12T14:56:19;7.45;;;2.70;;
25657;SDS011;13517;59.320;18.042;2022-09-12T14:58:44;9.10;;;2.70;;
25657;SDS011;13517;59.320;18.042;2022-09-12T15:03:36;3.28;;;2.10;;
25657;SDS011;13517;59.320;18.042;2022-09-12T15:06:03;4.90;;;2.25;;
25657;SDS011;13517;59.320;18.042;2022-09-12T15:08:31;6.35;;;2.88;;
25657;SDS011;13517;59.320;18.042;2022-09-12T15:10:57;7.50;;;3.75;;
25657;SDS011;13517;59.320;18.042;2022-09-12T15:13:24;5.93;;;3.58;;
25657;SDS011;13517;59.320;18.042;2022-09-12T15:15:53;4.80;;;2.80;;
25657;SDS011;13517;59.320;18.042;2022-09-12T15:18:20;7.20;;;2.70;;
25657;SDS011;13517;59.320;18.042;2022-09-12T15:20:48;5.75;;;2.55;;
25657;SDS011;13517;59.320;18.042;2022-09-12T15:23:58;3.88;;;2.60;;
25657;SDS011;13517;59.320;18.042;2022-09-12T15:26:21;10.98;;;2.22;;
25657;SDS011;13517;59.320;18.042;2022-09-12T15:28:48;5.30;;;2.78;;
25657;SDS011;13517;59.320;18.042;2022-09-12T15:31:23;8.90;;;2.60;;
25657;SDS011;13517;59.320;18.042;2022-09-12T15:33:51;8.05;;;2.65;;
25657;SDS011;13517;59.320;18.042;2022-09-12T15:36:17;5.55;;;2.40;;
25657;SDS011;13517;59.320;18.042;2022-09-12T15:38:45;5.30;;;2.70;;
25657;SDS011;13517;59.320;18.042;2022-09-12T15:41:18;8.13;;;2.80;;
25657;SDS011;13517;59.320;18.042;2022-09-12T15:43:46;7.50;;;2.80;;
25657;SDS011;13517;59.320;18.042;2022-09-12T15:46:13;7.22;;;2.55;;
25657;SDS011;13517;59.320;18.042;2022-09-12T15:48:41;7.18;;;3.80;;
25657;SDS011;13517;59.320;18.042;2022-09-12T15:51:17;5.80;;;3.45;;
25657;SDS011;13517;59.320;18.042;2022-09-12T15:53:45;6.97;;;5.22;;
25657;SDS011;13517;59.320;18.042;2022-09-12T15:56:11;10.05;;;5.55;;
25657;SDS011;13517;59.320;18.042;2022-09-12T15:58:37;4.03;;;2.20;;
25657;SDS011;13517;59.320;18.042;2022-09-12T16:01:03;5.95;;;2.42;;
25657;SDS011;13517;59.320;18.042;2022-09-12T16:03:29;4.10;;;2.60;;
25657;SDS011;13517;59.320;18.042;2022-09-12T16:05:55;7.50;;;3.03;;
25657;SDS011;13517;59.320;18.042;2022-09-12T16:08:23;3.80;;;2.50;;
25657;SDS011;13517;59.320;18.042;2022-09-12T16:10:52;4.85;;;2.90;;
25657;SDS011;13517;59.320;18.042;2022-09-12T16:13:20;5.68;;;2.35;;
25657;SDS011;13517;59.320;18.042;2022-09-12T16:15:46;7.75;;;2.72;;
25657;SDS011;13517;59.320;18.042;2022-09-12T16:18:11;7.82;;;2.92;;
25657;SDS011;13517;59.320;18.042;2022-09-12T16:20:38;6.07;;;2.63;;
25657;SDS011;13517;59.320;18.042;2022-09-12T16:23:04;9.10;;;2.70;;
25657;SDS011;13517;59.320;18.042;2022-09-12T16:25:30;9.77;;;2.78;;
25657;SDS011;13517;59.320;18.042;2022-09-12T16:27:56;11.05;;;2.58;;
25657;SDS011;13517;59.320;18.042;2022-09-12T16:30:21;7.30;;;2.40;;
25657;SDS011;13517;59.320;18.042;2022-09-12T16:32:46;4.15;;;2.50;;
25657;SDS011;13517;59.320;18.042;2022-09-12T16:35:12;5.55;;;2.60;;
25657;SDS011;13517;59.320;18.042;2022-09-12T16:37:37;7.97;;;2.65;;
25657;SDS011;13517;59.320;18.042;2022-09-12T16:40:03;6.25;;;2.38;;
25657;SDS011;13517;59.320;18.042;2022-09-12T16:42:29;4.63;;;2.80;;
25657;SDS011;13517;59.320;18.042;2022-09-12T16:44:55;5.38;;;2.85;;
25657;SDS011;13517;59.320;18.042;2022-09-12T16:47:20;7.65;;;2.70;;
25657;SDS011;13517;59.320;18.042;2022-09-12T16:49:46;5.90;;;2.75;;
25657;SDS011;13517;59.320;18.042;2022-09-12T16:52:11;6.43;;;2.92;;
25657;SDS011;13517;59.320;18.042;2022-09-12T16:54:40;3.10;;;2.70;;
25657;SDS011;13517;59.320;18.042;2022-09-12T16:57:06;8.13;;;3.28;;
25657;SDS011;13517;59.320;18.042;2022-09-12T16:59:31;9.70;;;3.45;;
25657;SDS011;13517;59.320;18.042;2022-09-12T17:01:57;6.13;;;2.83;;
25657;SDS011;13517;59.320;18.042;2022-09-12T17:04:22;10.23;;;3.13;;
25657;SDS011;13517;59.320;18.042;2022-09-12T17:06:48;8.32;;;3.03;;
25657;SDS011;13517;59.320;18.042;2022-09-12T17:09:14;8.25;;;3.05;;
25657;SDS011;13517;59.320;18.042;2022-09-12T17:11:42;7.38;;;2.88;;
25657;SDS011;13517;59.320;18.042;2022-09-12T17:14:09;6.20;;;2.75;;
25657;SDS011;13517;59.320;18.042;2022-09-12T17:16:38;5.05;;;3.28;;
25657;SDS011;13517;59.320;18.042;2022-09-12T17:19:06;5.50;;;3.47;;
25657;SDS011;13517;59.320;18.042;2022-09-12T17:21:33;8.85;;;3.03;;
25657;SDS011;13517;59.320;18.042;2022-09-12T17:23:59;9.65;;;3.03;;
25657;SDS011;13517;59.320;18.042;2022-09-12T17:26:25;11.90;;;2.80;;
25657;SDS011;13517;59.320;18.042;2022-09-12T17:28:50;9.63;;;2.80;;